sensor_id;sensor_type;location;lat;lon;timestamp;temperature;humidity
39095;DHT22;24840;47.508;19.376;2023-11-22T06:57:03;1.10;99.90
39095;DHT22;24840;47.508;19.376;2023-11-22T06:59:29;3.20;99.90
39095;DHT22;24840;47.508;19.376;2023-11-22T07:01:54;3.10;99.90
39095;DHT22;24840;47.508;19.376;2023-11-22T07:04:23;3.10;99.90
39095;DHT22;24840;47.508;19.376;2023-11-22T07:06:49;3.30;99.90
39095;DHT22;24840;47.508;19.376;2023-11-22T07:09:15;3.40;99.90
39095;DHT22;24840;47.508;19.376;2023-11-22T07:11:41;3.50;99.90
39095;DHT22;24840;47.508;19.376;2023-11-22T07:14:09;3.60;99.90
39095;DHT22;24840;47.508;19.376;2023-11-22T07:16:35;3.70;99.90
39095;DHT22;24840;47.508;19.376;2023-11-22T07:19:03;3.90;99.90
39095;DHT22;24840;47.508;19.376;2023-11-22T07:21:32;4.00;99.90
39095;DHT22;24840;47.508;19.376;2023-11-22T07:23:58;4.10;99.90
39095;DHT22;24840;47.508;19.376;2023-11-22T07:26:27;4.20;99.90
39095;DHT22;24840;47.508;19.376;2023-11-22T07:28:53;4.30;99.90
39095;DHT22;24840;47.508;19.376;2023-11-22T07:31:19;4.30;99.90
39095;DHT22;24840;47.508;19.376;2023-11-22T07:33:46;4.30;99.90
39095;DHT22;24840;47.508;19.376;2023-11-22T07:36:12;4.40;99.90
39095;DHT22;24840;47.508;19.376;2023-11-22T07:38:41;4.60;99.90
39095;DHT22;24840;47.508;19.376;2023-11-22T07:41:08;4.60;99.90
39095;DHT22;24840;47.508;19.376;2023-11-22T07:43:34;4.70;99.90
39095;DHT22;24840;47.508;19.376;2023-11-22T07:46:00;4.80;99.90
39095;DHT22;24840;47.508;19.376;2023-11-22T07:48:26;4.90;99.90
39095;DHT22;24840;47.508;19.376;2023-11-22T07:50:53;4.90;99.90
39095;DHT22;24840;47.508;19.376;2023-11-22T07:53:20;5.10;99.90
39095;DHT22;24840;47.508;19.376;2023-11-22T07:55:45;5.10;99.90
39095;DHT22;24840;47.508;19.376;2023-11-22T07:58:12;5.20;99.90
39095;DHT22;24840;47.508;19.376;2023-11-22T08:00:38;5.20;99.90
39095;DHT22;24840;47.508;19.376;2023-11-22T08:03:03;5.30;99.90
39095;DHT22;24840;47.508;19.376;2023-11-22T08:05:31;5.40;99.90
39095;DHT22;24840;47.508;19.376;2023-11-22T08:08:08;5.50;99.90
39095;DHT22;24840;47.508;19.376;2023-11-22T08:10:36;5.60;99.90
39095;DHT22;24840;47.508;19.376;2023-11-22T08:13:03;5.70;99.90
39095;DHT22;24840;47.508;19.376;2023-11-22T08:15:29;5.80;99.90
39095;DHT22;24840;47.508;19.376;2023-11-22T08:17:57;6.20;99.90
39095;DHT22;24840;47.508;19.376;2023-11-22T08:20:24;6.30;99.90
39095;DHT22;24840;47.508;19.376;2023-11-22T08:22:51;6.60;99.90
39095;DHT22;24840;47.508;19.376;2023-11-22T08:25:16;6.70;99.90
39095;DHT22;24840;47.508;19.376;2023-11-22T08:27:42;7.00;99.90
39095;DHT22;24840;47.508;19.376;2023-11-22T08:30:09;7.30;99.90
39095;DHT22;24840;47.508;19.376;2023-11-22T08:32:40;8.00;99.90
39095;DHT22;24840;47.508;19.376;2023-11-22T08:35:07;8.30;99.90
39095;DHT22;24840;47.508;19.376;2023-11-22T08:37:34;8.30;99.90
39095;DHT22;24840;47.508;19.376;2023-11-22T08:40:02;8.80;99.90
39095;DHT22;24840;47.508;19.376;2023-11-22T08:42:28;9.20;99.90
39095;DHT22;24840;47.508;19.376;2023-11-22T08:44:53;9.60;99.90
39095;DHT22;24840;47.508;19.376;2023-11-22T08:47:19;9.90;99.90
39095;DHT22;24840;47.508;19.376;2023-11-22T08:49:45;9.80;99.90
39095;DHT22;24840;47.508;19.376;2023-11-22T08:52:13;10.10;99.90
39095;DHT22;24840;47.508;19.376;2023-11-22T08:54:39;10.40;99.90
39095;DHT22;24840;47.508;19.376;2023-11-22T08:57:05;10.40;99.90
39095;DHT22;24840;47.508;19.376;2023-11-22T08:59:31;10.70;99.90
39095;DHT22;24840;47.508;19.376;2023-11-22T09:02:04;11.10;99.90
39095;DHT22;24840;47.508;19.376;2023-11-22T09:04:30;11.20;99.90
39095;DHT22;24840;47.508;19.376;2023-11-22T09:06:57;11.50;99.90
39095;DHT22;24840;47.508;19.376;2023-11-22T09:09:23;11.50;99.90
39095;DHT22;24840;47.508;19.376;2023-11-22T09:11:59;11.80;99.90
39095;DHT22;24840;47.508;19.376;2023-11-22T09:14:25;11.70;99.90
39095;DHT22;24840;47.508;19.376;2023-11-22T09:16:51;12.10;99.90
39095;DHT22;24840;47.508;19.376;2023-11-22T09:19:24;12.50;99.90
39095;DHT22;24840;47.508;19.376;2023-11-22T09:21:51;12.70;99.90
39095;DHT22;24840;47.508;19.376;2023-11-22T09:24:16;12.80;99.90
39095;DHT22;24840;47.508;19.376;2023-11-22T09:26:42;12.40;99.90
39095;DHT22;24840;47.508;19.376;2023-11-22T09:29:12;13.00;99.90
39095;DHT22;24840;47.508;19.376;2023-11-22T09:31:40;13.10;99.90
39095;DHT22;24840;47.508;19.376;2023-11-22T09:34:11;13.60;99.90
39095;DHT22;24840;47.508;19.376;2023-11-22T09:36:38;13.80;99.90
39095;DHT22;24840;47.508;19.376;2023-11-22T09:39:04;14.00;99.90
39095;DHT22;24840;47.508;19.376;2023-11-22T09:41:35;13.90;99.90
39095;DHT22;24840;47.508;19.376;2023-11-22T09:44:01;13.80;99.90
39095;DHT22;24840;47.508;19.376;2023-11-22T09:46:27;13.90;99.90
39095;DHT22;24840;47.508;19.376;2023-11-22T09:48:56;14.30;99.90
39095;DHT22;24840;47.508;19.376;2023-11-22T09:51:29;14.00;99.50
39095;DHT22;24840;47.508;19.376;2023-11-22T09:54:04;14.50;99.00
39095;DHT22;24840;47.508;19.376;2023-11-22T09:56:34;14.70;99.50
39095;DHT22;24840;47.508;19.376;2023-11-22T09:59:03;14.70;97.40
39095;DHT22;24840;47.508;19.376;2023-11-22T10:01:30;15.00;98.00
39095;DHT22;24840;47.508;19.376;2023-11-22T10:04:05;15.00;98.00
39095;DHT22;24840;47.508;19.376;2023-11-22T10:06:31;15.30;97.90
39095;DHT22;24840;47.508;19.376;2023-11-22T10:08:58;15.10;96.10
39095;DHT22;24840;47.508;19.376;2023-11-22T10:11:26;15.10;95.90
39095;DHT22;24840;47.508;19.376;2023-11-22T10:13:54;15.10;94.10
39095;DHT22;24840;47.508;19.376;2023-11-22T10:16:20;15.50;94.30
39095;DHT22;24840;47.508;19.376;2023-11-22T10:18:47;15.60;94.00
39095;DHT22;24840;47.508;19.376;2023-11-22T10:21:27;15.70;94.30
39095;DHT22;24840;47.508;19.376;2023-11-22T10:23:56;16.20;95.20
39095;DHT22;24840;47.508;19.376;2023-11-22T10:26:24;16.30;93.30
39095;DHT22;24840;47.508;19.376;2023-11-22T10:28:53;16.00;94.10
39095;DHT22;24840;47.508;19.376;2023-11-22T10:31:20;15.90;90.90
39095;DHT22;24840;47.508;19.376;2023-11-22T10:33:50;15.90;92.20
39095;DHT22;24840;47.508;19.376;2023-11-22T10:36:16;16.10;92.10
39095;DHT22;24840;47.508;19.376;2023-11-22T10:38:47;16.30;91.30
39095;DHT22;24840;47.508;19.376;2023-11-22T10:41:13;16.30;91.10
39095;DHT22;24840;47.508;19.376;2023-11-22T10:43:40;16.50;90.40
39095;DHT22;24840;47.508;19.376;2023-11-22T10:46:08;16.20;90.30
39095;DHT22;24840;47.508;19.376;2023-11-22T10:48:37;15.80;91.30
39095;DHT22;24840;47.508;19.376;2023-11-22T11:02:46;16.10;91.10
39095;DHT22;24840;47.508;19.376;2023-11-22T11:05:27;16.20;88.40
39095;DHT22;24840;47.508;19.376;2023-11-22T11:08:02;15.90;87.90
39095;DHT22;24840;47.508;19.376;2023-11-22T11:10:46;15.80;86.90
39095;DHT22;24840;47.508;19.376;2023-11-22T11:13:12;15.90;88.20
39095;DHT22;24840;47.508;19.376;2023-11-22T11:15:42;16.70;87.30
39095;DHT22;24840;47.508;19.376;2023-11-22T11:18:14;16.30;85.10
39095;DHT22;24840;47.508;19.376;2023-11-22T11:20:57;16.70;88.00
39095;DHT22;24840;47.508;19.376;2023-11-22T11:23:25;17.10;88.20
39095;DHT22;24840;47.508;19.376;2023-11-22T11:25:57;17.10;85.40
39095;DHT22;24840;47.508;19.376;2023-11-22T11:28:24;17.20;83.80
39095;DHT22;24840;47.508;19.376;2023-11-22T11:30:53;17.30;84.50
39095;DHT22;24840;47.508;19.376;2023-11-22T11:33:32;17.50;89.10
39095;DHT22;24840;47.508;19.376;2023-11-22T11:36:01;17.40;83.30
39095;DHT22;24840;47.508;19.376;2023-11-22T11:38:34;17.00;83.20
39095;DHT22;24840;47.508;19.376;2023-11-22T11:41:11;17.10;83.90
39095;DHT22;24840;47.508;19.376;2023-11-22T11:43:47;17.30;85.90
39095;DHT22;24840;47.508;19.376;2023-11-22T11:46:16;17.50;84.10
39095;DHT22;24840;47.508;19.376;2023-11-22T11:48:48;17.50;83.30
39095;DHT22;24840;47.508;19.376;2023-11-22T11:51:14;17.40;84.40
39095;DHT22;24840;47.508;19.376;2023-11-22T11:53:41;17.40;84.00
39095;DHT22;24840;47.508;19.376;2023-11-22T11:56:08;16.30;85.10
39095;DHT22;24840;47.508;19.376;2023-11-22T11:58:34;16.90;86.00
39095;DHT22;24840;47.508;19.376;2023-11-22T12:01:00;17.30;84.60
39095;DHT22;24840;47.508;19.376;2023-11-22T12:03:28;17.60;85.50
39095;DHT22;24840;47.508;19.376;2023-11-22T12:05:54;17.60;84.60
39095;DHT22;24840;47.508;19.376;2023-11-22T12:08:20;16.80;82.70
39095;DHT22;24840;47.508;19.376;2023-11-22T12:10:46;16.40;84.10
39095;DHT22;24840;47.508;19.376;2023-11-22T12:13:20;16.60;87.40
39095;DHT22;24840;47.508;19.376;2023-11-22T12:15:46;16.80;85.80
39095;DHT22;24840;47.508;19.376;2023-11-22T12:18:12;16.40;85.20
39095;DHT22;24840;47.508;19.376;2023-11-22T12:20:39;16.00;85.40
39095;DHT22;24840;47.508;19.376;2023-11-22T12:23:05;15.50;87.50
39095;DHT22;24840;47.508;19.376;2023-11-22T12:25:32;14.70;88.40
39095;DHT22;24840;47.508;19.376;2023-11-22T12:27:58;14.30;88.40
39095;DHT22;24840;47.508;19.376;2023-11-22T12:30:33;14.10;89.30
39095;DHT22;24840;47.508;19.376;2023-11-22T12:33:05;13.90;90.90
39095;DHT22;24840;47.508;19.376;2023-11-22T12:35:31;13.70;90.40
39095;DHT22;24840;47.508;19.376;2023-11-22T12:38:01;13.50;90.80
39095;DHT22;24840;47.508;19.376;2023-11-22T12:40:29;13.40;92.10
39095;DHT22;24840;47.508;19.376;2023-11-22T12:42:56;14.10;90.90
39095;DHT22;24840;47.508;19.376;2023-11-22T12:45:24;14.70;89.90
39095;DHT22;24840;47.508;19.376;2023-11-22T12:47:53;15.00;87.10
39095;DHT22;24840;47.508;19.376;2023-11-22T12:50:36;15.10;87.60
39095;DHT22;24840;47.508;19.376;2023-11-22T12:53:23;15.50;85.20
39095;DHT22;24840;47.508;19.376;2023-11-22T12:55:52;15.60;85.90
39095;DHT22;24840;47.508;19.376;2023-11-22T12:58:19;15.80;84.40
39095;DHT22;24840;47.508;19.376;2023-11-22T13:00:46;15.80;84.30
39095;DHT22;24840;47.508;19.376;2023-11-22T13:03:12;15.20;84.10
39095;DHT22;24840;47.508;19.376;2023-11-22T13:05:43;14.70;86.30
39095;DHT22;24840;47.508;19.376;2023-11-22T13:08:12;14.10;86.40
39095;DHT22;24840;47.508;19.376;2023-11-22T13:10:40;13.90;90.10
39095;DHT22;24840;47.508;19.376;2023-11-22T13:13:06;13.50;89.70
39095;DHT22;24840;47.508;19.376;2023-11-22T13:15:34;13.10;90.70
39095;DHT22;24840;47.508;19.376;2023-11-22T13:18:00;13.40;90.90
39095;DHT22;24840;47.508;19.376;2023-11-22T13:20:27;13.70;89.90
39095;DHT22;24840;47.508;19.376;2023-11-22T13:22:53;13.90;90.20
39095;DHT22;24840;47.508;19.376;2023-11-22T13:25:20;14.10;89.60
39095;DHT22;24840;47.508;19.376;2023-11-22T13:27:49;14.10;88.50
39095;DHT22;24840;47.508;19.376;2023-11-22T13:30:16;13.90;89.50
39095;DHT22;24840;47.508;19.376;2023-11-22T13:32:46;14.00;88.70
39095;DHT22;24840;47.508;19.376;2023-11-22T13:35:12;13.70;89.60
39095;DHT22;24840;47.508;19.376;2023-11-22T13:37:43;13.70;90.30
39095;DHT22;24840;47.508;19.376;2023-11-22T13:40:13;13.70;90.00
39095;DHT22;24840;47.508;19.376;2023-11-22T13:42:46;13.70;89.40
39095;DHT22;24840;47.508;19.376;2023-11-22T13:45:14;13.50;89.70
39095;DHT22;24840;47.508;19.376;2023-11-22T13:47:54;13.50;89.80
39095;DHT22;24840;47.508;19.376;2023-11-22T13:50:26;13.40;90.80
39095;DHT22;24840;47.508;19.376;2023-11-22T13:52:53;13.20;90.80
39095;DHT22;24840;47.508;19.376;2023-11-22T13:55:20;13.10;90.50
39095;DHT22;24840;47.508;19.376;2023-11-22T13:57:52;13.00;90.90
39095;DHT22;24840;47.508;19.376;2023-11-22T14:00:23;12.70;91.10
39095;DHT22;24840;47.508;19.376;2023-11-22T14:02:53;12.60;91.60
39095;DHT22;24840;47.508;19.376;2023-11-22T14:05:27;12.50;92.20
39095;DHT22;24840;47.508;19.376;2023-11-22T14:07:53;12.40;92.20
39095;DHT22;24840;47.508;19.376;2023-11-22T14:10:20;12.10;92.40
39095;DHT22;24840;47.508;19.376;2023-11-22T14:12:48;12.00;92.50
39095;DHT22;24840;47.508;19.376;2023-11-22T14:15:15;11.50;93.70
39095;DHT22;24840;47.508;19.376;2023-11-22T14:17:41;11.30;94.50
39095;DHT22;24840;47.508;19.376;2023-11-22T14:20:07;11.30;94.40
39095;DHT22;24840;47.508;19.376;2023-11-22T14:22:35;11.10;94.80
39095;DHT22;24840;47.508;19.376;2023-11-22T14:25:01;10.80;95.10
39095;DHT22;24840;47.508;19.376;2023-11-22T14:27:28;10.50;96.10
39095;DHT22;24840;47.508;19.376;2023-11-22T14:29:56;10.60;96.20
39095;DHT22;24840;47.508;19.376;2023-11-22T14:32:22;10.40;96.20
39095;DHT22;24840;47.508;19.376;2023-11-22T14:34:48;10.30;96.50
39095;DHT22;24840;47.508;19.376;2023-11-22T14:37:14;10.10;96.90
39095;DHT22;24840;47.508;19.376;2023-11-22T14:39:41;10.10;97.60
39095;DHT22;24840;47.508;19.376;2023-11-22T14:42:07;10.00;97.20
39095;DHT22;24840;47.508;19.376;2023-11-22T14:44:34;9.90;97.20
39095;DHT22;24840;47.508;19.376;2023-11-22T14:47:01;9.70;97.20
39095;DHT22;24840;47.508;19.376;2023-11-22T14:49:34;9.70;97.70
39095;DHT22;24840;47.508;19.376;2023-11-22T14:52:00;9.50;98.10
39095;DHT22;24840;47.508;19.376;2023-11-22T14:54:27;9.20;98.50
39095;DHT22;24840;47.508;19.376;2023-11-22T14:56:53;9.10;99.30
39095;DHT22;24840;47.508;19.376;2023-11-22T14:59:21;9.10;99.20
39095;DHT22;24840;47.508;19.376;2023-11-22T15:01:47;9.10;99.00
39095;DHT22;24840;47.508;19.376;2023-11-22T15:04:13;9.00;99.50
39095;DHT22;24840;47.508;19.376;2023-11-22T15:06:41;9.00;99.40
39095;DHT22;24840;47.508;19.376;2023-11-22T15:09:07;8.80;99.50
39095;DHT22;24840;47.508;19.376;2023-11-22T15:11:38;8.60;99.90
39095;DHT22;24840;47.508;19.376;2023-11-22T15:14:04;8.60;99.90
39095;DHT22;24840;47.508;19.376;2023-11-22T15:16:30;8.40;99.90
39095;DHT22;24840;47.508;19.376;2023-11-22T15:18:57;8.30;99.90
39095;DHT22;24840;47.508;19.376;2023-11-22T15:21:25;8.30;99.90
39095;DHT22;24840;47.508;19.376;2023-11-22T15:23:51;8.30;99.90
39095;DHT22;24840;47.508;19.376;2023-11-22T15:26:17;8.20;99.90
39095;DHT22;24840;47.508;19.376;2023-11-22T15:28:43;8.10;99.90
39095;DHT22;24840;47.508;19.376;2023-11-22T15:31:17;8.10;99.90
39095;DHT22;24840;47.508;19.376;2023-11-22T15:33:44;8.20;99.90
39095;DHT22;24840;47.508;19.376;2023-11-22T15:36:11;8.10;99.90
39095;DHT22;24840;47.508;19.376;2023-11-22T15:38:37;7.90;99.90
39095;DHT22;24840;47.508;19.376;2023-11-22T15:41:02;7.80;99.90
39095;DHT22;24840;47.508;19.376;2023-11-22T15:43:29;7.80;99.90
39095;DHT22;24840;47.508;19.376;2023-11-22T15:45:55;7.70;99.90
39095;DHT22;24840;47.508;19.376;2023-11-22T15:48:21;7.70;99.90
39095;DHT22;24840;47.508;19.376;2023-11-22T15:50:47;7.60;99.90
39095;DHT22;24840;47.508;19.376;2023-11-22T15:53:12;7.60;99.90
39095;DHT22;24840;47.508;19.376;2023-11-22T15:55:42;7.70;99.90
39095;DHT22;24840;47.508;19.376;2023-11-22T15:58:08;7.70;99.90
39095;DHT22;24840;47.508;19.376;2023-11-22T16:00:34;7.70;99.90
39095;DHT22;24840;47.508;19.376;2023-11-22T16:03:00;7.70;99.90
39095;DHT22;24840;47.508;19.376;2023-11-22T16:05:27;7.70;99.90
39095;DHT22;24840;47.508;19.376;2023-11-22T16:07:54;7.70;99.90
39095;DHT22;24840;47.508;19.376;2023-11-22T16:10:20;7.70;99.90
39095;DHT22;24840;47.508;19.376;2023-11-22T16:12:46;7.80;99.90
39095;DHT22;24840;47.508;19.376;2023-11-22T16:15:11;7.80;99.90
39095;DHT22;24840;47.508;19.376;2023-11-22T16:17:38;7.70;99.90
39095;DHT22;24840;47.508;19.376;2023-11-22T16:20:04;7.40;99.90
39095;DHT22;24840;47.508;19.376;2023-11-22T16:22:50;7.50;99.90
39095;DHT22;24840;47.508;19.376;2023-11-22T16:25:16;7.50;99.90
39095;DHT22;24840;47.508;19.376;2023-11-22T16:27:48;7.30;99.90
39095;DHT22;24840;47.508;19.376;2023-11-22T16:30:14;7.40;99.90
39095;DHT22;24840;47.508;19.376;2023-11-22T16:32:40;7.30;99.90
39095;DHT22;24840;47.508;19.376;2023-11-22T16:35:07;7.10;99.90
39095;DHT22;24840;47.508;19.376;2023-11-22T16:37:33;7.00;99.90
39095;DHT22;24840;47.508;19.376;2023-11-22T16:39:59;7.00;99.90
39095;DHT22;24840;47.508;19.376;2023-11-22T16:42:33;6.90;99.90
39095;DHT22;24840;47.508;19.376;2023-11-22T16:44:59;6.60;99.90
39095;DHT22;24840;47.508;19.376;2023-11-22T16:47:25;6.70;99.90
39095;DHT22;24840;47.508;19.376;2023-11-22T16:49:51;6.70;99.90
39095;DHT22;24840;47.508;19.376;2023-11-22T16:52:17;6.70;99.90
39095;DHT22;24840;47.508;19.376;2023-11-22T16:54:45;6.40;99.90
39095;DHT22;24840;47.508;19.376;2023-11-22T16:57:11;6.60;99.90
39095;DHT22;24840;47.508;19.376;2023-11-22T16:59:40;6.50;99.90
39095;DHT22;24840;47.508;19.376;2023-11-22T17:02:10;6.40;99.90
39095;DHT22;24840;47.508;19.376;2023-11-22T17:04:39;6.40;99.90
39095;DHT22;24840;47.508;19.376;2023-11-22T17:07:08;6.30;99.90
39095;DHT22;24840;47.508;19.376;2023-11-22T17:09:34;6.30;99.90
39095;DHT22;24840;47.508;19.376;2023-11-22T17:12:05;6.20;99.90
39095;DHT22;24840;47.508;19.376;2023-11-22T17:14:31;6.40;99.90
39095;DHT22;24840;47.508;19.376;2023-11-22T17:16:58;6.30;99.90
39095;DHT22;24840;47.508;19.376;2023-11-22T17:19:23;6.30;99.90
39095;DHT22;24840;47.508;19.376;2023-11-22T17:21:49;6.20;99.90
39095;DHT22;24840;47.508;19.376;2023-11-22T17:24:16;6.00;99.90
39095;DHT22;24840;47.508;19.376;2023-11-22T17:26:42;6.00;99.90
39095;DHT22;24840;47.508;19.376;2023-11-22T17:29:08;6.10;99.90
39095;DHT22;24840;47.508;19.376;2023-11-22T17:31:33;6.30;99.90
39095;DHT22;24840;47.508;19.376;2023-11-22T17:33:59;6.30;99.90
39095;DHT22;24840;47.508;19.376;2023-11-22T17:36:25;6.40;99.90
39095;DHT22;24840;47.508;19.376;2023-11-22T17:38:51;6.20;99.90
39095;DHT22;24840;47.508;19.376;2023-11-22T17:41:16;6.10;99.90
39095;DHT22;24840;47.508;19.376;2023-11-22T17:43:42;6.10;99.90
39095;DHT22;24840;47.508;19.376;2023-11-22T17:46:08;6.20;99.90
39095;DHT22;24840;47.508;19.376;2023-11-22T17:48:35;5.90;99.90
39095;DHT22;24840;47.508;19.376;2023-11-22T17:51:01;5.80;99.90
39095;DHT22;24840;47.508;19.376;2023-11-22T17:53:27;5.70;99.90
39095;DHT22;24840;47.508;19.376;2023-11-22T17:55:53;5.70;99.90
39095;DHT22;24840;47.508;19.376;2023-11-22T17:58:19;5.70;99.90
39095;DHT22;24840;47.508;19.376;2023-11-22T18:00:47;5.90;99.90
39095;DHT22;24840;47.508;19.376;2023-11-22T18:03:13;5.90;99.90
39095;DHT22;24840;47.508;19.376;2023-11-22T18:05:39;5.90;99.90
39095;DHT22;24840;47.508;19.376;2023-11-22T18:08:05;5.80;99.90
39095;DHT22;24840;47.508;19.376;2023-11-22T18:10:30;5.80;99.90
39095;DHT22;24840;47.508;19.376;2023-11-22T18:12:57;5.80;99.90
39095;DHT22;24840;47.508;19.376;2023-11-22T18:15:23;5.70;99.90
39095;DHT22;24840;47.508;19.376;2023-11-22T18:17:49;5.70;99.90
39095;DHT22;24840;47.508;19.376;2023-11-22T18:20:15;5.50;99.90
39095;DHT22;24840;47.508;19.376;2023-11-22T18:22:41;5.50;99.90
39095;DHT22;24840;47.508;19.376;2023-11-22T18:25:07;5.60;99.90
39095;DHT22;24840;47.508;19.376;2023-11-22T18:27:34;5.60;99.90
39095;DHT22;24840;47.508;19.376;2023-11-22T18:29:59;5.70;99.90
39095;DHT22;24840;47.508;19.376;2023-11-22T18:32:26;5.60;99.90
39095;DHT22;24840;47.508;19.376;2023-11-22T18:34:52;5.50;99.90
39095;DHT22;24840;47.508;19.376;2023-11-22T18:37:18;5.60;99.90
39095;DHT22;24840;47.508;19.376;2023-11-22T18:39:44;5.70;99.90
39095;DHT22;24840;47.508;19.376;2023-11-22T18:42:12;5.60;99.90
39095;DHT22;24840;47.508;19.376;2023-11-22T18:44:39;5.70;99.90
39095;DHT22;24840;47.508;19.376;2023-11-22T18:47:06;5.70;99.90
39095;DHT22;24840;47.508;19.376;2023-11-22T18:49:34;5.50;99.90
39095;DHT22;24840;47.508;19.376;2023-11-22T18:51:59;5.50;99.90
39095;DHT22;24840;47.508;19.376;2023-11-22T18:54:25;5.50;99.90
39095;DHT22;24840;47.508;19.376;2023-11-22T18:56:52;5.50;99.90
39095;DHT22;24840;47.508;19.376;2023-11-22T18:59:18;5.60;99.90
39095;DHT22;24840;47.508;19.376;2023-11-22T19:01:48;5.50;99.90
39095;DHT22;24840;47.508;19.376;2023-11-22T19:04:16;5.50;99.90
39095;DHT22;24840;47.508;19.376;2023-11-22T19:06:43;5.50;99.90
39095;DHT22;24840;47.508;19.376;2023-11-22T19:09:10;5.50;99.90
39095;DHT22;24840;47.508;19.376;2023-11-22T19:11:38;5.20;99.90
39095;DHT22;24840;47.508;19.376;2023-11-22T19:14:04;5.00;99.90
39095;DHT22;24840;47.508;19.376;2023-11-22T19:16:30;5.10;99.90
39095;DHT22;24840;47.508;19.376;2023-11-22T19:18:56;5.20;99.90
39095;DHT22;24840;47.508;19.376;2023-11-22T19:21:24;5.20;99.90
39095;DHT22;24840;47.508;19.376;2023-11-22T19:23:50;5.20;99.90
39095;DHT22;24840;47.508;19.376;2023-11-22T19:26:23;5.40;99.90
39095;DHT22;24840;47.508;19.376;2023-11-22T19:28:49;5.40;99.90
39095;DHT22;24840;47.508;19.376;2023-11-22T19:31:17;5.30;99.90
39095;DHT22;24840;47.508;19.376;2023-11-22T19:33:43;5.30;99.90
39095;DHT22;24840;47.508;19.376;2023-11-22T19:36:09;5.40;99.90
39095;DHT22;24840;47.508;19.376;2023-11-22T19:38:37;5.40;99.90
39095;DHT22;24840;47.508;19.376;2023-11-22T19:41:03;5.30;99.90
39095;DHT22;24840;47.508;19.376;2023-11-22T19:43:30;5.20;99.90
39095;DHT22;24840;47.508;19.376;2023-11-22T19:45:55;5.10;99.90
39095;DHT22;24840;47.508;19.376;2023-11-22T19:48:21;5.10;99.90
39095;DHT22;24840;47.508;19.376;2023-11-22T19:50:47;5.20;99.90
39095;DHT22;24840;47.508;19.376;2023-11-22T19:53:13;5.30;99.90
39095;DHT22;24840;47.508;19.376;2023-11-22T19:55:39;5.10;99.90
39095;DHT22;24840;47.508;19.376;2023-11-22T19:58:05;5.20;99.90
39095;DHT22;24840;47.508;19.376;2023-11-22T20:00:30;5.20;99.90
39095;DHT22;24840;47.508;19.376;2023-11-22T20:02:58;5.20;99.90
39095;DHT22;24840;47.508;19.376;2023-11-22T20:05:26;5.10;99.90
39095;DHT22;24840;47.508;19.376;2023-11-22T20:07:52;5.10;99.90
39095;DHT22;24840;47.508;19.376;2023-11-22T20:10:18;4.90;99.90
39095;DHT22;24840;47.508;19.376;2023-11-22T20:12:50;4.90;99.90
39095;DHT22;24840;47.508;19.376;2023-11-22T20:15:15;4.70;99.90
39095;DHT22;24840;47.508;19.376;2023-11-22T20:17:42;4.70;99.90
39095;DHT22;24840;47.508;19.376;2023-11-22T20:20:08;4.80;99.90
39095;DHT22;24840;47.508;19.376;2023-11-22T20:22:36;4.60;99.90
39095;DHT22;24840;47.508;19.376;2023-11-22T20:25:02;4.50;99.90
39095;DHT22;24840;47.508;19.376;2023-11-22T20:27:28;4.60;99.90
39095;DHT22;24840;47.508;19.376;2023-11-22T20:29:55;4.60;99.90
39095;DHT22;24840;47.508;19.376;2023-11-22T20:32:21;4.40;99.90
39095;DHT22;24840;47.508;19.376;2023-11-22T20:34:47;4.30;99.90
39095;DHT22;24840;47.508;19.376;2023-11-22T20:37:13;4.10;99.90
39095;DHT22;24840;47.508;19.376;2023-11-22T20:39:43;4.10;99.90
39095;DHT22;24840;47.508;19.376;2023-11-22T20:42:10;4.10;99.90
39095;DHT22;24840;47.508;19.376;2023-11-22T20:44:36;4.10;99.90
39095;DHT22;24840;47.508;19.376;2023-11-22T20:47:02;4.20;99.90
39095;DHT22;24840;47.508;19.376;2023-11-22T20:49:29;4.10;99.90
39095;DHT22;24840;47.508;19.376;2023-11-22T20:51:59;4.10;99.90
39095;DHT22;24840;47.508;19.376;2023-11-22T20:54:25;4.10;99.90
39095;DHT22;24840;47.508;19.376;2023-11-22T20:56:52;4.00;99.90
39095;DHT22;24840;47.508;19.376;2023-11-22T20:59:17;4.00;99.90
39095;DHT22;24840;47.508;19.376;2023-11-22T21:01:44;4.00;99.90
39095;DHT22;24840;47.508;19.376;2023-11-22T21:04:10;4.10;99.90
39095;DHT22;24840;47.508;19.376;2023-11-22T21:06:36;4.30;99.90
39095;DHT22;24840;47.508;19.376;2023-11-22T21:09:05;4.30;99.90
39095;DHT22;24840;47.508;19.376;2023-11-22T21:11:41;4.20;99.90
39095;DHT22;24840;47.508;19.376;2023-11-22T21:14:10;4.10;99.90
39095;DHT22;24840;47.508;19.376;2023-11-22T21:16:43;3.80;99.90
39095;DHT22;24840;47.508;19.376;2023-11-22T21:19:10;3.80;99.90
39095;DHT22;24840;47.508;19.376;2023-11-22T21:21:37;3.90;99.90
39095;DHT22;24840;47.508;19.376;2023-11-22T21:24:03;3.90;99.90
39095;DHT22;24840;47.508;19.376;2023-11-22T21:26:30;3.60;99.90
39095;DHT22;24840;47.508;19.376;2023-11-22T21:28:56;3.50;99.90
39095;DHT22;24840;47.508;19.376;2023-11-22T21:31:22;3.50;99.90
39095;DHT22;24840;47.508;19.376;2023-11-22T21:33:48;3.40;99.90
39095;DHT22;24840;47.508;19.376;2023-11-22T21:36:15;3.20;99.90
39095;DHT22;24840;47.508;19.376;2023-11-22T21:38:42;3.30;99.90
39095;DHT22;24840;47.508;19.376;2023-11-22T21:41:08;3.40;99.90
39095;DHT22;24840;47.508;19.376;2023-11-22T21:43:35;3.40;99.90
39095;DHT22;24840;47.508;19.376;2023-11-22T21:46:02;3.30;99.90
39095;DHT22;24840;47.508;19.376;2023-11-22T21:48:28;3.30;99.90
39095;DHT22;24840;47.508;19.376;2023-11-22T21:50:54;3.10;99.90
39095;DHT22;24840;47.508;19.376;2023-11-22T21:53:20;3.10;99.90
39095;DHT22;24840;47.508;19.376;2023-11-22T21:55:46;2.90;99.90
39095;DHT22;24840;47.508;19.376;2023-11-22T21:58:12;3.00;99.90
39095;DHT22;24840;47.508;19.376;2023-11-22T22:00:40;3.00;99.90
39095;DHT22;24840;47.508;19.376;2023-11-22T22:03:06;2.90;99.90
39095;DHT22;24840;47.508;19.376;2023-11-22T22:05:31;2.80;99.90
39095;DHT22;24840;47.508;19.376;2023-11-22T22:07:57;2.70;99.90
39095;DHT22;24840;47.508;19.376;2023-11-22T22:10:23;2.60;99.90
39095;DHT22;24840;47.508;19.376;2023-11-22T22:12:49;2.60;99.90
39095;DHT22;24840;47.508;19.376;2023-11-22T22:15:14;2.80;99.90
39095;DHT22;24840;47.508;19.376;2023-11-22T22:17:40;2.80;99.90
39095;DHT22;24840;47.508;19.376;2023-11-22T22:20:06;2.90;99.90
39095;DHT22;24840;47.508;19.376;2023-11-22T22:22:32;2.90;99.90
39095;DHT22;24840;47.508;19.376;2023-11-22T22:24:58;3.00;99.90
39095;DHT22;24840;47.508;19.376;2023-11-22T22:27:24;2.90;99.90
39095;DHT22;24840;47.508;19.376;2023-11-22T22:29:51;2.90;99.90
39095;DHT22;24840;47.508;19.376;2023-11-22T22:32:16;2.80;99.90
39095;DHT22;24840;47.508;19.376;2023-11-22T22:34:42;2.70;99.90